Time;durP1;ratioP1;P1;durP2;ratioP2;P2;SDS_P1;SDS_P2;PMS_P1;PMS_P2;Temp;Humidity;BMP_temperature;BMP_pressure;BME280_temperature;BME280_humidity;BME280_pressure;Samples;Min_cycle;Max_cycle;Signal;HPM_P1;HPM_P2
2023/06/29 00:00:40;;;;;;;5.82;3.80;;;17.10;99.90;;;;;;4970323;28;20190;-36
2023/06/29 00:03:06;;;;;;;7.37;3.93;;;17.10;99.90;;;;;;4977316;28;20180;-35
2023/06/29 00:05:32;;;;;;;7.17;3.83;;;17.00;99.90;;;;;;4983460;28;20203;-33
2023/06/29 00:07:59;;;;;;;6.33;3.73;;;16.90;99.90;;;;;;5004741;28;20204;-35
2023/06/29 00:10:25;;;;;;;8.55;3.90;;;16.90;99.90;;;;;;4979476;28;20180;-37
2023/06/29 00:12:52;;;;;;;6.00;3.30;;;16.80;99.90;;;;;;4963560;28;20172;-33
2023/06/29 00:15:18;;;;;;;5.40;3.50;;;16.80;99.90;;;;;;4971707;28;20187;-37
2023/06/29 00:17:47;;;;;;;4.80;3.60;;;16.90;99.90;;;;;;4970740;28;20232;-35
2023/06/29 00:20:14;;;;;;;4.70;3.80;;;17.00;99.90;;;;;;4980085;28;20190;-33
2023/06/29 00:22:48;;;;;;;5.93;3.72;;;17.10;99.90;;;;;;4971135;28;20184;-33
2023/06/29 00:25:14;;;;;;;7.07;4.80;;;17.00;99.90;;;;;;4989574;28;20288;-38
2023/06/29 00:27:40;;;;;;;7.60;4.70;;;17.00;99.90;;;;;;4973822;28;20199;-36
2023/06/29 00:30:07;;;;;;;4.40;3.88;;;17.00;99.90;;;;;;4972508;28;20184;-34
2023/06/29 00:32:33;;;;;;;5.60;4.10;;;17.00;99.90;;;;;;4968838;28;20196;-35
2023/06/29 00:34:59;;;;;;;3.60;3.27;;;17.00;99.90;;;;;;4971999;28;20278;-38
2023/06/29 00:37:25;;;;;;;4.70;4.27;;;17.00;99.90;;;;;;4997141;28;20704;-35
2023/06/29 00:39:52;;;;;;;6.13;4.43;;;16.90;99.90;;;;;;4972649;28;20184;-32
2023/06/29 00:42:18;;;;;;;5.90;3.73;;;16.80;99.90;;;;;;4986830;28;20259;-36
2023/06/29 00:44:46;;;;;;;4.15;3.72;;;16.90;99.90;;;;;;4968795;28;20211;-37
2023/06/29 00:47:11;;;;;;;7.67;4.07;;;16.80;99.90;;;;;;4971551;28;20207;-35
2023/06/29 00:49:38;;;;;;;4.07;3.53;;;16.80;99.90;;;;;;4988235;28;20189;-32
2023/06/29 00:52:04;;;;;;;5.00;4.10;;;16.80;99.90;;;;;;4984303;28;20194;-33
2023/06/29 00:54:31;;;;;;;5.20;4.20;;;16.80;99.90;;;;;;4973528;28;20187;-35
2023/06/29 00:57:00;;;;;;;4.13;3.73;;;16.80;99.90;;;;;;4973164;28;20200;-39
2023/06/29 00:59:26;;;;;;;5.93;3.80;;;16.70;99.90;;;;;;4984036;28;20186;-38
2023/06/29 01:01:52;;;;;;;3.97;3.50;;;16.60;99.90;;;;;;4970658;28;20188;-39
2023/06/29 01:04:22;;;;;;;5.57;4.40;;;16.50;99.90;;;;;;4973990;28;20299;-37
2023/06/29 01:07:22;;;;;;;4.93;3.53;;;16.40;99.90;;;;;;4972605;28;20203;-40
2023/06/29 01:09:50;;;;;;;6.70;3.73;;;16.30;99.90;;;;;;4995614;28;20258;-38
2023/06/29 01:12:17;;;;;;;5.23;4.33;;;16.20;99.90;;;;;;4975268;28;20188;-34
2023/06/29 01:14:44;;;;;;;7.87;4.07;;;16.20;99.90;;;;;;4982932;28;20255;-33
2023/06/29 01:17:14;;;;;;;4.57;3.93;;;16.10;99.90;;;;;;5001859;28;20208;-34
2023/06/29 01:19:45;;;;;;;5.40;3.70;;;16.00;99.90;;;;;;4982245;28;20180;-36
2023/06/29 01:22:24;;;;;;;5.40;3.83;;;16.00;99.90;;;;;;4987688;28;20188;-38
2023/06/29 01:24:51;;;;;;;5.13;4.57;;;16.10;99.90;;;;;;4969120;28;20207;-37
2023/06/29 01:27:17;;;;;;;12.70;4.57;;;16.10;99.90;;;;;;4973101;28;20261;-32
2023/06/29 01:29:43;;;;;;;6.50;4.27;;;16.10;99.90;;;;;;4973394;28;20211;-38
2023/06/29 01:32:09;;;;;;;5.93;4.73;;;16.10;99.90;;;;;;4979846;28;20718;-39
2023/06/29 01:34:37;;;;;;;5.50;4.80;;;16.00;99.90;;;;;;4979969;28;20264;-37
2023/06/29 01:37:13;;;;;;;7.13;5.00;;;16.00;99.90;;;;;;4977992;28;20212;-33
2023/06/29 01:39:54;;;;;;;5.73;5.03;;;16.00;99.90;;;;;;4968076;28;20191;-38
2023/06/29 01:42:21;;;;;;;5.27;4.77;;;15.90;99.90;;;;;;4969843;28;20275;-36
2023/06/29 01:44:48;;;;;;;5.83;5.00;;;15.90;99.90;;;;;;4968783;28;20207;-35
2023/06/29 01:47:18;;;;;;;6.07;4.70;;;15.80;99.90;;;;;;4979399;28;20258;-38
2023/06/29 01:49:44;;;;;;;6.57;5.13;;;15.80;99.90;;;;;;4974629;28;20298;-36
2023/06/29 01:52:10;;;;;;;5.10;4.70;;;15.80;99.90;;;;;;4981709;28;20219;-36
2023/06/29 01:54:36;;;;;;;5.67;4.50;;;15.70;99.90;;;;;;4973704;28;20253;-38
2023/06/29 01:57:05;;;;;;;4.53;4.13;;;15.70;99.90;;;;;;4994388;28;20211;-35
2023/06/29 01:59:31;;;;;;;5.63;4.30;;;15.60;99.90;;;;;;4973898;28;20192;-37
2023/06/29 02:01:57;;;;;;;5.33;4.53;;;15.70;99.90;;;;;;4973000;28;20185;-38
2023/06/29 02:04:23;;;;;;;5.90;3.87;;;15.70;99.90;;;;;;4988543;28;20214;-39
2023/06/29 02:06:49;;;;;;;5.77;3.87;;;15.60;99.90;;;;;;4985352;28;20197;-34
2023/06/29 02:09:15;;;;;;;3.97;3.67;;;15.60;99.90;;;;;;4986798;28;20188;-34
2023/06/29 02:11:41;;;;;;;4.43;4.03;;;15.50;99.90;;;;;;4975066;28;20180;-38
2023/06/29 02:14:07;;;;;;;5.83;4.03;;;15.50;99.90;;;;;;4985763;28;20238;-36
2023/06/29 02:16:33;;;;;;;4.40;4.00;;;15.50;99.90;;;;;;4984884;28;20180;-33
2023/06/29 02:19:01;;;;;;;5.47;4.70;;;15.40;99.90;;;;;;5000882;28;20205;-36
2023/06/29 02:21:27;;;;;;;5.10;4.17;;;15.40;99.90;;;;;;4993574;28;20194;-37
2023/06/29 02:23:52;;;;;;;5.70;4.67;;;15.40;99.90;;;;;;4980902;28;20223;-37
2023/06/29 02:26:19;;;;;;;4.73;4.33;;;15.40;99.90;;;;;;5001075;28;20211;-35
2023/06/29 02:28:44;;;;;;;5.87;4.60;;;15.30;99.90;;;;;;4991457;28;20180;-38
2023/06/29 02:31:10;;;;;;;7.43;4.83;;;15.30;99.90;;;;;;4993148;28;20247;-34
2023/06/29 02:33:37;;;;;;;5.20;4.70;;;15.30;99.90;;;;;;4976377;28;20180;-36
2023/06/29 02:36:03;;;;;;;4.67;4.23;;;15.30;99.90;;;;;;4978216;28;20259;-34
2023/06/29 02:38:29;;;;;;;5.30;4.10;;;15.20;99.90;;;;;;4984318;28;20212;-39
2023/06/29 02:40:55;;;;;;;4.63;4.03;;;15.20;99.90;;;;;;4990644;28;20184;-34
2023/06/29 02:43:21;;;;;;;4.43;4.07;;;15.10;99.90;;;;;;4988579;28;20192;-34
2023/06/29 02:45:47;;;;;;;5.27;4.77;;;15.00;99.90;;;;;;4971528;28;20219;-34
2023/06/29 02:48:13;;;;;;;7.27;5.00;;;15.00;99.90;;;;;;4984149;28;20286;-37
2023/06/29 02:50:39;;;;;;;5.00;4.60;;;14.90;99.90;;;;;;4968359;28;20191;-38
2023/06/29 02:53:05;;;;;;;6.27;5.67;;;14.80;99.90;;;;;;4989413;28;20227;-36
2023/06/29 02:55:32;;;;;;;5.53;4.97;;;14.80;99.90;;;;;;4969308;28;20194;-33
2023/06/29 02:57:58;;;;;;;7.87;5.00;;;14.90;99.90;;;;;;4974869;28;20234;-34
2023/06/29 03:00:24;;;;;;;5.53;5.10;;;14.90;99.90;;;;;;4972646;28;20184;-32
2023/06/29 03:02:50;;;;;;;6.93;4.80;;;14.90;99.90;;;;;;4971486;28;20184;-38
2023/06/29 03:05:16;;;;;;;5.43;4.80;;;15.00;99.90;;;;;;4980007;28;20203;-33
2023/06/29 03:07:42;;;;;;;8.03;5.00;;;15.00;99.90;;;;;;4975494;28;20267;-37
2023/06/29 03:10:08;;;;;;;5.43;4.93;;;15.00;99.90;;;;;;4984770;28;20180;-38
2023/06/29 03:12:34;;;;;;;5.37;4.87;;;15.00;99.90;;;;;;4971580;28;20176;-33
2023/06/29 03:15:00;;;;;;;5.17;4.77;;;15.00;99.90;;;;;;4973932;28;20250;-36
2023/06/29 03:17:27;;;;;;;5.53;5.00;;;15.00;99.90;;;;;;4983623;28;20319;-34
2023/06/29 03:19:53;;;;;;;6.10;5.50;;;14.90;99.90;;;;;;4981808;28;20183;-33
2023/06/29 03:22:19;;;;;;;6.23;5.27;;;14.90;99.90;;;;;;4990339;28;20189;-35
2023/06/29 03:24:44;;;;;;;7.57;5.23;;;14.90;99.90;;;;;;4978121;28;20231;-36
2023/06/29 03:27:11;;;;;;;6.50;5.27;;;15.00;99.90;;;;;;4972480;28;20234;-34
2023/06/29 03:29:37;;;;;;;9.73;5.70;;;15.00;99.90;;;;;;4982677;28;20181;-35
2023/06/29 03:32:03;;;;;;;5.67;5.17;;;15.00;99.90;;;;;;5006775;28;20242;-35
2023/06/29 03:34:28;;;;;;;5.53;4.80;;;14.90;99.90;;;;;;4973297;28;20188;-34
2023/06/29 03:36:54;;;;;;;5.37;4.57;;;15.00;99.90;;;;;;4987765;28;20212;-35
2023/06/29 03:39:20;;;;;;;5.53;4.63;;;15.00;99.90;;;;;;4971540;28;20212;-34
2023/06/29 03:41:46;;;;;;;6.97;5.10;;;14.90;99.90;;;;;;4969524;28;20214;-36
2023/06/29 03:44:12;;;;;;;6.43;4.97;;;14.80;99.90;;;;;;4968517;28;20227;-37
2023/06/29 03:46:40;;;;;;;5.43;4.93;;;14.80;99.90;;;;;;4973550;28;20288;-36
2023/06/29 03:49:06;;;;;;;5.90;5.30;;;14.80;99.90;;;;;;5019454;28;20251;-35
2023/06/29 03:51:32;;;;;;;5.87;5.27;;;14.70;99.90;;;;;;4976050;28;20275;-38
2023/06/29 03:53:57;;;;;;;4.87;4.37;;;14.70;99.90;;;;;;4967645;28;20188;-37
2023/06/29 03:56:23;;;;;;;5.63;5.07;;;14.70;99.90;;;;;;4962838;28;20192;-34
2023/06/29 03:58:49;;;;;;;5.73;5.13;;;14.70;99.90;;;;;;4981903;28;20208;-33
2023/06/29 04:01:15;;;;;;;5.70;4.90;;;14.80;99.90;;;;;;4989305;28;20189;-32
2023/06/29 04:03:41;;;;;;;6.00;5.40;;;14.80;99.90;;;;;;4974902;28;20184;-37
2023/06/29 04:06:06;;;;;;;5.87;5.40;;;14.80;99.90;;;;;;4974738;28;20180;-37
2023/06/29 04:08:33;;;;;;;7.03;5.40;;;14.80;99.90;;;;;;4964327;28;20207;-34
2023/06/29 04:10:59;;;;;;;6.40;5.17;;;14.80;99.90;;;;;;4992448;28;20335;-37
2023/06/29 04:13:25;;;;;;;5.57;5.07;;;14.80;99.90;;;;;;4970575;28;20276;-38
2023/06/29 04:15:53;;;;;;;7.73;5.40;;;14.90;99.90;;;;;;4968873;28;20215;-38
2023/06/29 04:18:19;;;;;;;6.03;5.40;;;14.90;99.90;;;;;;4975322;28;20212;-36
2023/06/29 04:20:45;;;;;;;5.83;5.33;;;14.90;99.90;;;;;;4995101;28;20192;-35
2023/06/29 04:23:15;;;;;;;6.97;5.63;;;14.90;99.90;;;;;;4991520;28;20190;-37
2023/06/29 04:25:42;;;;;;;6.00;5.37;;;14.90;99.90;;;;;;4984732;28;20231;-33
2023/06/29 04:28:09;;;;;;;7.77;5.50;;;14.90;99.90;;;;;;4989127;28;20715;-32
2023/06/29 04:30:38;;;;;;;6.43;5.57;;;15.00;99.90;;;;;;4972599;28;20235;-34
2023/06/29 04:33:09;;;;;;;7.63;5.60;;;15.00;99.90;;;;;;4981578;28;20249;-38
2023/06/29 04:35:40;;;;;;;6.40;5.80;;;15.00;99.90;;;;;;4983918;28;20199;-37
2023/06/29 04:38:07;;;;;;;5.93;5.40;;;15.00;99.90;;;;;;4989983;28;20224;-34
2023/06/29 04:40:34;;;;;;;5.90;4.97;;;15.10;99.90;;;;;;4990484;28;20325;-35
2023/06/29 04:43:01;;;;;;;9.10;5.13;;;15.10;99.90;;;;;;4974098;28;20211;-34
2023/06/29 04:45:28;;;;;;;6.23;4.73;;;15.20;99.90;;;;;;4973704;28;20212;-35
2023/06/29 04:47:56;;;;;;;5.10;4.63;;;15.20;99.90;;;;;;4980379;28;20213;-33
2023/06/29 04:50:25;;;;;;;5.30;4.80;;;15.20;99.90;;;;;;4980573;28;20200;-38
2023/06/29 04:52:55;;;;;;;4.80;4.37;;;15.30;99.90;;;;;;4968712;28;20187;-33
2023/06/29 04:55:22;;;;;;;5.20;4.63;;;15.30;99.90;;;;;;4970851;28;20192;-34
2023/06/29 04:57:48;;;;;;;5.33;4.73;;;15.40;99.90;;;;;;4969783;28;20239;-33
2023/06/29 05:00:14;;;;;;;4.87;4.47;;;15.40;99.90;;;;;;5002725;28;20226;-34
2023/06/29 05:02:41;;;;;;;5.23;4.70;;;15.50;99.90;;;;;;4974311;28;20203;-34
2023/06/29 05:05:08;;;;;;;6.13;5.13;;;15.50;99.90;;;;;;4973809;28;20207;-35
2023/06/29 05:07:35;;;;;;;5.27;4.77;;;15.50;99.90;;;;;;4965998;28;20200;-36
2023/06/29 05:10:01;;;;;;;5.43;4.93;;;15.60;99.90;;;;;;4973108;28;20184;-37
2023/06/29 05:12:27;;;;;;;5.83;5.23;;;15.60;99.90;;;;;;4969731;28;20208;-36
2023/06/29 05:14:53;;;;;;;6.70;5.00;;;15.70;99.90;;;;;;4968605;28;20278;-35
2023/06/29 05:17:19;;;;;;;7.47;5.60;;;15.70;99.90;;;;;;4973781;28;20208;-34
2023/06/29 05:19:45;;;;;;;6.03;5.33;;;15.80;99.90;;;;;;4986029;28;20183;-36
2023/06/29 05:22:11;;;;;;;6.37;5.53;;;15.80;99.90;;;;;;4986357;28;20192;-36
2023/06/29 05:24:37;;;;;;;6.17;5.57;;;15.80;99.90;;;;;;4982719;28;20612;-36
2023/06/29 05:27:04;;;;;;;6.73;5.30;;;15.80;99.90;;;;;;4986578;28;20211;-36
2023/06/29 05:29:30;;;;;;;6.73;5.37;;;15.90;99.90;;;;;;4969977;28;20184;-35
2023/06/29 05:31:55;;;;;;;6.80;5.00;;;16.00;99.90;;;;;;4968945;28;20180;-37
2023/06/29 05:34:21;;;;;;;5.83;5.10;;;16.00;99.90;;;;;;4987697;28;20192;-35
2023/06/29 05:36:47;;;;;;;6.73;5.50;;;16.10;99.90;;;;;;4967279;28;20219;-36
2023/06/29 05:39:13;;;;;;;7.80;5.43;;;16.20;99.90;;;;;;4971782;28;20195;-37
2023/06/29 05:41:39;;;;;;;6.17;5.57;;;16.30;99.90;;;;;;4986679;28;20196;-38
2023/06/29 05:44:08;;;;;;;6.47;5.53;;;16.40;99.90;;;;;;4968633;28;20250;-38
2023/06/29 05:46:36;;;;;;;5.80;5.20;;;16.60;99.90;;;;;;4978036;28;20184;-35
2023/06/29 05:49:04;;;;;;;6.40;5.67;;;16.60;99.90;;;;;;4996021;28;20187;-34
2023/06/29 05:51:29;;;;;;;7.40;6.03;;;16.70;99.90;;;;;;4989055;28;20188;-38
2023/06/29 05:53:57;;;;;;;6.93;5.67;;;16.80;99.90;;;;;;4983917;28;20176;-37
2023/06/29 05:56:24;;;;;;;7.90;5.67;;;16.90;99.90;;;;;;4991129;28;20227;-33
2023/06/29 05:58:50;;;;;;;6.93;5.07;;;17.00;99.90;;;;;;4978280;28;20212;-39
2023/06/29 06:01:18;;;;;;;7.17;5.17;;;17.10;99.90;;;;;;4992615;28;20211;-36
2023/06/29 06:03:45;;;;;;;5.82;5.32;;;17.30;99.90;;;;;;4983453;28;20184;-36
2023/06/29 06:06:11;;;;;;;7.05;5.50;;;17.40;99.90;;;;;;4992658;28;20187;-37
2023/06/29 06:08:37;;;;;;;8.35;4.80;;;17.50;99.90;;;;;;4977062;28;20279;-38
2023/06/29 06:11:02;;;;;;;8.35;5.63;;;17.70;99.90;;;;;;4972015;28;20184;-33
2023/06/29 06:13:28;;;;;;;6.85;5.40;;;17.90;99.90;;;;;;4974183;28;20188;-36
2023/06/29 06:15:54;;;;;;;7.30;5.35;;;18.00;99.90;;;;;;4971754;28;20188;-37
2023/06/29 06:18:20;;;;;;;6.35;5.35;;;18.20;99.90;;;;;;4977844;28;20673;-37
2023/06/29 06:20:46;;;;;;;6.40;5.03;;;18.40;99.90;;;;;;4976823;28;20278;-37
2023/06/29 06:23:11;;;;;;;7.35;5.30;;;18.50;99.90;;;;;;4975833;28;20192;-37
2023/06/29 06:25:37;;;;;;;5.50;5.05;;;18.70;99.90;;;;;;4976817;28;20220;-36
2023/06/29 06:28:04;;;;;;;7.25;5.32;;;18.90;99.90;;;;;;4976688;28;20208;-35
2023/06/29 06:30:30;;;;;;;5.35;4.82;;;19.00;99.90;;;;;;4973690;28;20276;-37
2023/06/29 06:32:55;;;;;;;5.53;5.03;;;19.10;99.90;;;;;;4984540;28;20271;-36
2023/06/29 06:35:21;;;;;;;5.40;4.90;;;19.20;99.90;;;;;;4990903;28;20210;-40
2023/06/29 06:37:47;;;;;;;6.70;4.82;;;19.40;99.90;;;;;;4983255;28;20247;-37
2023/06/29 06:40:15;;;;;;;6.50;4.78;;;19.60;99.90;;;;;;4986982;28;20192;-35
2023/06/29 06:42:41;;;;;;;4.95;4.50;;;19.80;99.90;;;;;;4976552;28;20188;-36
2023/06/29 06:45:08;;;;;;;5.30;4.80;;;19.90;99.90;;;;;;4975576;28;20214;-38
2023/06/29 06:47:35;;;;;;;6.05;4.22;;;20.10;99.90;;;;;;4994523;28;20214;-37
2023/06/29 06:50:02;;;;;;;6.55;4.47;;;20.30;99.90;;;;;;4995548;28;20187;-38
2023/06/29 06:52:28;;;;;;;5.22;4.40;;;20.50;99.90;;;;;;4981942;28;20207;-36
2023/06/29 06:54:54;;;;;;;5.72;4.78;;;20.60;99.90;;;;;;4984133;28;20188;-39
2023/06/29 06:57:20;;;;;;;6.40;4.40;;;20.70;99.90;;;;;;4989393;28;20209;-36
2023/06/29 06:59:46;;;;;;;7.38;4.57;;;20.70;99.90;;;;;;4976491;28;20186;-37
2023/06/29 07:02:12;;;;;;;6.85;4.50;;;20.80;99.90;;;;;;4975941;28;20184;-35
2023/06/29 07:04:39;;;;;;;4.07;3.70;;;20.90;99.90;;;;;;4975783;28;20215;-36
2023/06/29 07:07:06;;;;;;;6.80;4.45;;;21.00;99.90;;;;;;4975785;28;20203;-33
2023/06/29 07:09:32;;;;;;;4.90;3.80;;;21.00;99.90;;;;;;4975959;28;20210;-39
2023/06/29 07:11:58;;;;;;;6.28;4.55;;;21.10;99.90;;;;;;4972554;28;20279;-36
2023/06/29 07:14:24;;;;;;;4.25;3.60;;;21.20;99.90;;;;;;4972552;28;20188;-33
2023/06/29 07:16:50;;;;;;;5.60;3.70;;;21.30;99.90;;;;;;4969673;28;20207;-37
2023/06/29 07:19:16;;;;;;;4.65;4.15;;;21.40;99.90;;;;;;5000764;28;20187;-38
2023/06/29 07:21:42;;;;;;;5.07;3.60;;;21.60;99.90;;;;;;4979720;28;20188;-37
2023/06/29 07:24:09;;;;;;;6.32;3.75;;;21.80;99.90;;;;;;4972301;28;20204;-37
2023/06/29 07:26:36;;;;;;;5.55;3.70;;;21.90;99.90;;;;;;4983582;28;20191;-36
2023/06/29 07:29:04;;;;;;;4.13;3.72;;;22.10;99.90;;;;;;4975267;28;20247;-37
2023/06/29 07:31:30;;;;;;;4.53;3.38;;;22.20;99.90;;;;;;4972882;28;20203;-36
2023/06/29 07:33:56;;;;;;;7.32;3.70;;;22.20;99.90;;;;;;4970280;28;20173;-37
2023/06/29 07:36:23;;;;;;;6.00;3.40;;;22.30;99.90;;;;;;4979886;28;20250;-42
2023/06/29 07:38:50;;;;;;;4.82;3.65;;;22.10;99.90;;;;;;4982476;28;20189;-42
2023/06/29 07:41:17;;;;;;;4.47;3.70;;;22.10;99.90;;;;;;4991237;28;20219;-42
2023/06/29 07:43:57;;;;;;;4.35;3.10;;;22.10;99.90;;;;;;4981760;28;20212;-41
2023/06/29 07:46:23;;;;;;;6.03;3.40;;;22.00;99.90;;;;;;4985694;28;20185;-42
2023/06/29 07:48:50;;;;;;;4.97;3.20;;;22.00;99.90;;;;;;4999405;28;20195;-40
2023/06/29 07:51:16;;;;;;;5.93;3.50;;;22.10;99.90;;;;;;5004645;28;20266;-42
2023/06/29 07:53:43;;;;;;;3.63;3.15;;;22.00;99.90;;;;;;4968602;28;20204;-42
2023/06/29 07:56:09;;;;;;;3.85;3.15;;;22.10;99.90;;;;;;4974955;28;20176;-42
2023/06/29 07:58:35;;;;;;;5.65;3.55;;;22.20;99.90;;;;;;4987048;28;20207;-42
2023/06/29 08:01:01;;;;;;;3.83;3.00;;;22.50;99.90;;;;;;4970910;28;20207;-42
2023/06/29 08:03:27;;;;;;;5.45;3.22;;;22.70;99.90;;;;;;4972692;28;20247;-42
2023/06/29 08:05:53;;;;;;;3.15;2.80;;;22.80;99.90;;;;;;4982095;28;20216;-42
2023/06/29 08:08:20;;;;;;;6.30;3.20;;;23.00;99.90;;;;;;4988786;28;20203;-42
2023/06/29 08:10:48;;;;;;;4.15;2.45;;;23.20;99.90;;;;;;4975023;28;20278;-42
2023/06/29 08:13:14;;;;;;;3.92;2.25;;;23.40;99.90;;;;;;4974163;28;20219;-42
2023/06/29 08:15:40;;;;;;;3.50;2.45;;;23.50;99.90;;;;;;4983451;28;20195;-42
2023/06/29 08:18:06;;;;;;;3.78;2.78;;;23.60;99.90;;;;;;4990343;28;20207;-42
2023/06/29 08:20:32;;;;;;;2.80;2.53;;;23.60;99.90;;;;;;4987648;28;20263;-42
2023/06/29 08:22:58;;;;;;;3.00;2.47;;;23.90;99.90;;;;;;4986110;28;20195;-41
2023/06/29 08:25:24;;;;;;;3.55;2.75;;;23.90;99.90;;;;;;4972876;28;20211;-42
2023/06/29 08:27:50;;;;;;;2.78;2.47;;;23.90;99.90;;;;;;4981097;28;20224;-42
2023/06/29 08:30:16;;;;;;;3.78;2.20;;;24.00;99.90;;;;;;4987904;28;20193;-42
2023/06/29 08:32:43;;;;;;;6.00;2.63;;;24.20;99.90;;;;;;4974620;28;20176;-42
2023/06/29 08:35:09;;;;;;;4.53;2.35;;;24.30;99.90;;;;;;4987579;28;20283;-42
2023/06/29 08:37:36;;;;;;;5.07;2.85;;;24.50;99.90;;;;;;4971215;28;20247;-42
2023/06/29 08:40:04;;;;;;;3.25;2.55;;;24.40;99.90;;;;;;4974242;28;20184;-42
2023/06/29 08:42:30;;;;;;;3.65;2.58;;;24.50;99.90;;;;;;4971844;28;20664;-42
2023/06/29 08:44:56;;;;;;;2.63;2.42;;;24.70;99.90;;;;;;4968829;28;20285;-42
2023/06/29 08:47:26;;;;;;;3.70;2.38;;;24.90;99.90;;;;;;4984338;28;20203;-43
2023/06/29 08:49:57;;;;;;;5.20;2.40;;;25.10;99.90;;;;;;4974427;28;20172;-42
2023/06/29 08:52:26;;;;;;;3.95;2.88;;;25.20;99.90;;;;;;4973378;28;20180;-42
2023/06/29 08:54:56;;;;;;;4.00;2.72;;;25.30;99.90;;;;;;4974234;28;20190;-42
2023/06/29 08:57:23;;;;;;;2.75;2.50;;;25.40;99.90;;;;;;4972343;28;20216;-42
2023/06/29 08:59:49;;;;;;;3.28;2.50;;;25.60;99.90;;;;;;4980827;28;20187;-42
2023/06/29 09:02:16;;;;;;;2.97;2.30;;;25.90;99.90;;;;;;4990251;28;20311;-43
2023/06/29 09:04:44;;;;;;;3.05;2.50;;;26.00;99.90;;;;;;4974227;28;20227;-42
2023/06/29 09:07:10;;;;;;;3.75;2.35;;;26.10;99.90;;;;;;4990188;28;20210;-41
2023/06/29 09:09:37;;;;;;;3.50;2.60;;;26.00;99.90;;;;;;4973859;28;20251;-42
2023/06/29 09:12:03;;;;;;;5.35;2.47;;;26.00;99.90;;;;;;4973048;28;20226;-41
2023/06/29 09:14:32;;;;;;;5.18;2.33;;;26.20;99.90;;;;;;4971389;28;20274;-40
2023/06/29 09:17:01;;;;;;;2.85;2.60;;;26.50;99.90;;;;;;4968495;28;20314;-43
2023/06/29 09:19:29;;;;;;;2.63;2.15;;;26.80;99.90;;;;;;5024938;28;20187;-43
2023/06/29 09:21:56;;;;;;;3.80;2.08;;;27.10;99.90;;;;;;4990685;28;20215;-43
2023/06/29 09:24:27;;;;;;;2.83;2.20;;;27.40;99.90;;;;;;4975161;28;20215;-42
2023/06/29 09:26:56;;;;;;;2.50;2.10;;;27.70;99.90;;;;;;4974462;28;20283;-42
2023/06/29 09:29:23;;;;;;;2.97;2.45;;;27.70;99.90;;;;;;4978309;28;20708;-38
2023/06/29 09:31:56;;;;;;;3.58;2.33;;;27.80;99.90;;;;;;4980485;28;20187;-43
2023/06/29 09:34:27;;;;;;;4.72;2.20;;;27.80;99.90;;;;;;4978305;28;20270;-41
2023/06/29 09:36:55;;;;;;;2.58;2.03;;;27.80;98.90;;;;;;4990477;28;20207;-42
2023/06/29 09:39:22;;;;;;;3.20;2.20;;;27.90;99.00;;;;;;4977606;28;20275;-42
2023/06/29 09:41:56;;;;;;;4.70;2.10;;;28.10;99.80;;;;;;4973659;28;20188;-42
2023/06/29 09:44:25;;;;;;;2.50;2.13;;;28.10;99.90;;;;;;4979894;28;20301;-42
2023/06/29 09:47:05;;;;;;;3.13;2.20;;;28.30;99.90;;;;;;4979796;28;20254;-41
2023/06/29 09:49:42;;;;;;;3.00;2.30;;;28.50;99.10;;;;;;5014782;28;20195;-43
2023/06/29 09:52:08;;;;;;;3.28;2.40;;;28.60;99.10;;;;;;4983855;28;20179;-42
2023/06/29 09:54:39;;;;;;;3.58;2.25;;;28.80;98.90;;;;;;4979105;28;20175;-43
2023/06/29 09:57:10;;;;;;;3.88;2.15;;;28.50;99.00;;;;;;4987002;28;20204;-43
2023/06/29 09:59:41;;;;;;;2.30;2.10;;;28.80;98.90;;;;;;4984648;28;20195;-43
2023/06/29 10:02:09;;;;;;;2.97;2.20;;;28.90;98.00;;;;;;4995719;28;20188;-42
2023/06/29 10:04:41;;;;;;;4.03;2.60;;;28.70;98.50;;;;;;5007558;28;20204;-42
2023/06/29 10:07:21;;;;;;;5.18;2.40;;;28.60;98.20;;;;;;4998483;28;20199;-38
2023/06/29 10:09:49;;;;;;;3.85;2.45;;;28.50;98.40;;;;;;4987170;28;20213;-42
2023/06/29 10:12:19;;;;;;;3.08;2.08;;;27.70;98.30;;;;;;4987335;28;20180;-43
2023/06/29 10:14:51;;;;;;;4.70;2.45;;;27.20;99.40;;;;;;4989332;28;20290;-42
2023/06/29 10:17:33;;;;;;;6.28;2.83;;;27.10;99.90;;;;;;5019432;28;20215;-41
2023/06/29 10:20:06;;;;;;;3.40;2.42;;;27.30;99.90;;;;;;5003377;28;20182;-42
2023/06/29 10:22:36;;;;;;;2.40;2.10;;;27.70;99.90;;;;;;4988546;28;20188;-43
2023/06/29 10:25:08;;;;;;;3.97;2.42;;;28.00;99.60;;;;;;4987809;28;20215;-42
2023/06/29 10:27:36;;;;;;;3.83;2.35;;;28.20;99.20;;;;;;5002573;28;20200;-42
2023/06/29 10:30:04;;;;;;;5.45;2.90;;;28.30;99.50;;;;;;4987092;28;20180;-43
2023/06/29 10:32:33;;;;;;;5.78;2.60;;;28.40;99.10;;;;;;4983426;28;20184;-40
2023/06/29 10:35:00;;;;;;;3.75;2.50;;;28.70;99.90;;;;;;4983712;28;20275;-43
2023/06/29 10:37:32;;;;;;;4.70;2.60;;;28.90;99.10;;;;;;4999858;28;20243;-42
2023/06/29 10:39:58;;;;;;;7.13;2.80;;;29.20;98.80;;;;;;4984405;28;20320;-41
2023/06/29 10:42:25;;;;;;;3.95;2.65;;;29.40;98.00;;;;;;4999581;28;20179;-39
2023/06/29 10:44:51;;;;;;;4.63;2.78;;;29.60;97.40;;;;;;5000001;28;20215;-42
2023/06/29 10:47:28;;;;;;;3.10;2.50;;;29.60;97.10;;;;;;4981342;28;20203;-41
2023/06/29 10:50:33;;;;;;;5.22;2.78;;;29.60;96.80;;;;;;4984228;28;20176;-43
2023/06/29 10:53:02;;;;;;;4.53;2.90;;;29.50;96.70;;;;;;4999406;28;20171;-43
2023/06/29 10:55:40;;;;;;;6.03;3.45;;;29.40;96.30;;;;;;4984938;28;20183;-41
2023/06/29 10:58:16;;;;;;;3.60;2.92;;;29.20;96.50;;;;;;4980915;28;20295;-42
2023/06/29 11:00:42;;;;;;;4.63;3.08;;;29.30;96.70;;;;;;4972713;28;20183;-40
2023/06/29 11:03:09;;;;;;;4.10;2.85;;;29.30;96.60;;;;;;4968728;28;20192;-43
2023/06/29 11:05:35;;;;;;;4.35;2.90;;;29.40;96.80;;;;;;4994841;28;20205;-43
2023/06/29 11:08:02;;;;;;;5.28;2.85;;;29.50;95.60;;;;;;4985785;28;20199;-42
2023/06/29 11:10:28;;;;;;;6.35;3.53;;;29.50;96.00;;;;;;4988588;28;20188;-42
2023/06/29 11:12:55;;;;;;;4.05;3.42;;;29.50;96.20;;;;;;4988571;28;20191;-43
2023/06/29 11:15:22;;;;;;;10.32;3.92;;;29.50;95.50;;;;;;4996167;28;20184;-43
2023/06/29 11:17:50;;;;;;;5.75;3.83;;;29.30;96.10;;;;;;4996549;28;20237;-42
2023/06/29 11:20:19;;;;;;;4.90;3.70;;;29.40;95.90;;;;;;4987302;28;20179;-42
2023/06/29 11:22:46;;;;;;;5.28;3.50;;;29.60;96.10;;;;;;4986177;28;20190;-43
2023/06/29 11:25:15;;;;;;;5.75;3.80;;;29.70;96.20;;;;;;4998110;28;20203;-42
2023/06/29 11:27:42;;;;;;;5.25;3.70;;;30.00;95.20;;;;;;4972977;28;20227;-42
2023/06/29 11:30:10;;;;;;;5.40;3.72;;;30.40;95.20;;;;;;4976007;28;20180;-42
2023/06/29 11:32:37;;;;;;;5.45;4.10;;;30.40;94.70;;;;;;4972694;28;20264;-43
2023/06/29 11:35:05;;;;;;;4.70;3.67;;;30.60;95.10;;;;;;4971006;28;20184;-43
2023/06/29 11:37:32;;;;;;;4.50;3.35;;;30.50;94.40;;;;;;4972817;28;20252;-42
2023/06/29 11:39:58;;;;;;;5.55;3.53;;;30.60;94.50;;;;;;4976283;28;20192;-43
2023/06/29 11:42:25;;;;;;;5.78;3.78;;;30.80;94.50;;;;;;4973354;28;20195;-43
2023/06/29 11:45:06;;;;;;;4.65;3.67;;;30.70;93.90;;;;;;4979478;28;20208;-40
2023/06/29 11:47:32;;;;;;;5.65;3.80;;;30.60;94.40;;;;;;4993178;28;20695;-43
2023/06/29 11:50:00;;;;;;;6.10;4.00;;;30.40;95.10;;;;;;4987362;28;20207;-43
2023/06/29 11:52:30;;;;;;;5.38;3.47;;;30.00;94.50;;;;;;4981019;28;20195;-42
2023/06/29 11:55:06;;;;;;;5.70;3.60;;;29.60;95.20;;;;;;4968598;28;20187;-41
2023/06/29 11:57:37;;;;;;;5.15;3.85;;;29.10;94.80;;;;;;4991201;28;20230;-43
2023/06/29 12:00:31;;;;;;;6.18;4.35;;;28.80;95.40;;;;;;4970331;28;20192;-42
2023/06/29 12:03:05;;;;;;;5.00;3.72;;;28.80;96.10;;;;;;4969781;28;20199;-41
2023/06/29 12:05:32;;;;;;;6.53;3.60;;;28.80;96.30;;;;;;4973073;28;20213;-42
2023/06/29 12:08:05;;;;;;;6.97;4.03;;;28.90;96.40;;;;;;4971764;28;20280;-43
2023/06/29 12:10:35;;;;;;;4.50;3.75;;;29.40;96.50;;;;;;4971940;28;20200;-41
2023/06/29 12:13:03;;;;;;;5.18;4.20;;;29.70;95.50;;;;;;4972428;28;20177;-43
2023/06/29 12:15:35;;;;;;;5.78;4.78;;;30.00;95.10;;;;;;4973200;28;20274;-43
2023/06/29 12:18:12;;;;;;;6.43;4.85;;;30.00;95.90;;;;;;4997055;28;20203;-42
2023/06/29 12:20:41;;;;;;;6.05;4.93;;;29.90;94.70;;;;;;4983961;28;20180;-42
2023/06/29 12:23:10;;;;;;;7.55;4.78;;;29.90;95.20;;;;;;4974327;28;20208;-43
2023/06/29 12:25:50;;;;;;;6.45;5.20;;;30.00;95.20;;;;;;5000449;28;20218;-42
2023/06/29 12:28:18;;;;;;;6.90;5.53;;;29.90;95.10;;;;;;4985142;28;20283;-39
2023/06/29 12:30:45;;;;;;;7.35;5.40;;;29.80;94.80;;;;;;4969729;28;20215;-40
2023/06/29 12:33:14;;;;;;;7.10;5.45;;;30.00;95.10;;;;;;4966920;28;20216;-41
2023/06/29 12:35:42;;;;;;;8.18;6.47;;;30.10;95.20;;;;;;4979100;28;20189;-43
2023/06/29 12:38:09;;;;;;;6.97;5.80;;;30.00;95.00;;;;;;4973141;28;20235;-43
2023/06/29 12:40:40;;;;;;;9.77;6.13;;;30.00;95.00;;;;;;4977112;28;20188;-39
2023/06/29 12:43:08;;;;;;;8.00;6.43;;;30.20;95.10;;;;;;4985187;28;20246;-43
2023/06/29 12:45:36;;;;;;;7.75;5.93;;;30.40;94.40;;;;;;4969215;28;20216;-41
2023/06/29 12:48:06;;;;;;;6.72;6.00;;;30.60;94.60;;;;;;5005505;28;20362;-43
2023/06/29 12:50:44;;;;;;;7.18;5.88;;;30.40;94.20;;;;;;4973738;28;20235;-42